createdAt,value
2019-03-11T00:00:39.229Z,90.18
2019-03-11T00:03:07.884Z,89.81
2019-03-11T00:05:36.472Z,89.50
2019-03-11T00:08:05.359Z,89.60
2019-03-11T00:10:34.092Z,89.23
2019-03-11T00:13:02.680Z,89.38
2019-03-11T00:15:31.335Z,88.56
2019-03-11T00:17:59.952Z,88.31
2019-03-11T00:20:28.509Z,87.99
2019-03-11T00:22:57.080Z,87.92
2019-03-11T00:25:25.541Z,88.69
2019-03-11T00:27:53.983Z,89.52
2019-03-11T00:30:22.576Z,89.51
2019-03-11T00:32:51.097Z,89.89
2019-03-11T00:35:19.710Z,90.08
2019-03-11T00:37:48.228Z,90.21
2019-03-11T00:40:16.905Z,90.15
2019-03-11T00:42:45.425Z,90.22
2019-03-11T00:45:15.246Z,90.22
2019-03-11T00:47:43.854Z,90.31
2019-03-11T00:50:13.461Z,90.39
2019-03-11T00:52:42.254Z,90.20
2019-03-11T00:55:12.111Z,90.04
2019-03-11T00:57:40.647Z,90.37
2019-03-11T01:00:15.018Z,90.20
2019-03-11T01:02:43.554Z,89.95
2019-03-11T01:05:12.076Z,90.37
2019-03-11T01:07:40.624Z,90.78
2019-03-11T01:10:09.906Z,90.47
2019-03-11T01:12:38.515Z,89.91
2019-03-11T01:15:09.657Z,90.21
2019-03-11T01:17:38.254Z,90.11
2019-03-11T01:20:09.137Z,89.97
2019-03-11T01:22:37.681Z,90.12
2019-03-11T01:25:08.464Z,90.28
2019-03-11T01:27:37.013Z,90.26
2019-03-11T01:30:14.094Z,90.17
2019-03-11T01:32:42.619Z,89.74
2019-03-11T01:35:11.597Z,89.46
2019-03-11T01:37:40.142Z,89.20
2019-03-11T01:40:16.928Z,89.19
2019-03-11T01:42:45.507Z,88.90
2019-03-11T01:45:15.703Z,88.85
2019-03-11T01:47:44.142Z,88.91
2019-03-11T01:50:14.131Z,88.77
2019-03-11T01:52:42.863Z,88.90
2019-03-11T01:55:12.843Z,88.77
2019-03-11T01:57:41.442Z,88.84
2019-03-11T02:00:20.224Z,88.61
2019-03-11T02:02:48.688Z,88.68
2019-03-11T02:05:17.272Z,88.41
2019-03-11T02:07:45.723Z,88.41
2019-03-11T02:10:18.303Z,88.19
2019-03-11T02:12:46.819Z,87.51
2019-03-11T02:15:19.755Z,87.45
2019-03-11T02:17:48.278Z,87.27
2019-03-11T02:20:17.869Z,87.26
2019-03-11T02:22:46.384Z,87.62
2019-03-11T02:25:15.467Z,87.65
2019-03-11T02:27:44.050Z,87.80
2019-03-11T02:30:15.019Z,88.26
2019-03-11T02:32:43.615Z,88.76
2019-03-11T02:35:12.385Z,88.29
2019-03-11T02:37:40.972Z,88.62
2019-03-11T02:40:14.564Z,88.41
2019-03-11T02:42:43.072Z,88.22
2019-03-11T02:45:11.784Z,88.31
2019-03-11T02:47:40.370Z,88.45
2019-03-11T02:50:10.703Z,88.22
2019-03-11T02:52:39.279Z,88.41
2019-03-11T02:55:08.028Z,88.42
2019-03-11T02:57:36.767Z,88.48
2019-03-11T03:00:08.465Z,88.60
2019-03-11T03:02:44.629Z,88.90
2019-03-11T03:05:17.713Z,88.96
2019-03-11T03:07:46.227Z,89.00
2019-03-11T03:10:14.986Z,89.23
2019-03-11T03:12:43.499Z,89.40
2019-03-11T03:15:12.140Z,89.35
2019-03-11T03:17:40.718Z,89.54
2019-03-11T03:20:16.891Z,89.48
2019-03-11T03:22:45.445Z,89.73
2019-03-11T03:25:14.752Z,89.72
2019-03-11T03:27:43.509Z,89.84
2019-03-11T03:30:15.044Z,89.67
2019-03-11T03:32:43.663Z,89.79
2019-03-11T03:35:12.164Z,90.08
2019-03-11T03:37:40.762Z,89.80
2019-03-11T03:40:12.006Z,89.77
2019-03-11T03:42:40.691Z,89.79
2019-03-11T03:45:20.806Z,89.86
2019-03-11T03:47:49.692Z,89.83
2019-03-11T03:50:18.503Z,89.80
2019-03-11T03:52:47.112Z,89.66
2019-03-11T03:55:15.815Z,89.62
2019-03-11T03:57:44.416Z,89.35
2019-03-11T04:00:13.830Z,89.40
2019-03-11T04:02:42.393Z,89.55
2019-03-11T04:05:12.388Z,89.44
2019-03-11T04:07:40.969Z,89.65
2019-03-11T04:10:17.407Z,89.67
2019-03-11T04:12:46.395Z,89.54
2019-03-11T04:15:15.963Z,89.23
2019-03-11T04:17:44.884Z,89.19
2019-03-11T04:20:19.136Z,88.86
2019-03-11T04:22:47.662Z,88.45
2019-03-11T04:25:16.247Z,87.76
2019-03-11T04:27:44.979Z,87.45
2019-03-11T04:30:16.735Z,87.54
2019-03-11T04:32:45.341Z,87.21
2019-03-11T04:35:13.950Z,86.77
2019-03-11T04:37:42.624Z,86.15
2019-03-11T04:40:14.083Z,86.00
2019-03-11T04:42:42.774Z,85.88
2019-03-11T04:45:13.463Z,85.95
2019-03-11T04:47:42.048Z,85.99
2019-03-11T04:50:13.104Z,85.78
2019-03-11T04:52:41.585Z,86.05
2019-03-11T04:55:11.924Z,86.31
2019-03-11T04:57:52.470Z,86.71
2019-03-11T05:00:23.160Z,86.91
2019-03-11T05:02:51.632Z,86.91
2019-03-11T05:05:20.143Z,86.65
2019-03-11T05:07:48.681Z,86.70
2019-03-11T05:10:17.270Z,86.59
2019-03-11T05:12:45.894Z,86.20
2019-03-11T05:15:15.199Z,86.09
2019-03-11T05:17:44.039Z,86.34
2019-03-11T05:20:14.590Z,86.16
2019-03-11T05:22:43.502Z,86.11
2019-03-11T05:25:13.412Z,85.76
2019-03-11T05:27:41.921Z,85.57
2019-03-11T05:30:13.602Z,85.42
2019-03-11T05:32:42.209Z,85.46
2019-03-11T05:35:10.791Z,85.59
2019-03-11T05:37:39.307Z,85.60
2019-03-11T05:40:10.695Z,85.69
2019-03-11T05:42:39.141Z,85.67
2019-03-11T05:45:10.405Z,85.49
2019-03-11T05:47:38.942Z,85.48
2019-03-11T05:50:15.220Z,85.45
2019-03-11T05:52:44.061Z,85.68
2019-03-11T05:55:13.475Z,85.41
2019-03-11T05:57:42.062Z,85.59
2019-03-11T06:00:20.067Z,85.59
2019-03-11T06:02:48.599Z,85.79
2019-03-11T06:05:17.095Z,86.08
2019-03-11T06:07:45.644Z,86.83
2019-03-11T06:10:15.263Z,87.50
2019-03-11T06:12:43.816Z,88.21
2019-03-11T06:15:13.800Z,88.88
2019-03-11T06:17:42.501Z,89.43
2019-03-11T06:20:31.180Z,90.03
2019-03-11T06:23:00.829Z,90.53
2019-03-11T06:25:29.448Z,90.18
2019-03-11T06:27:57.996Z,90.42
2019-03-11T06:30:26.571Z,90.70
2019-03-11T06:32:55.206Z,90.93
2019-03-11T06:35:23.776Z,90.95
2019-03-11T06:37:52.360Z,91.46
2019-03-11T06:40:20.904Z,92.13
2019-03-11T06:42:49.419Z,92.61
2019-03-11T06:45:17.941Z,93.09
2019-03-11T06:47:46.454Z,93.41
2019-03-11T06:50:16.265Z,93.81
2019-03-11T06:52:44.848Z,94.10
2019-03-11T06:55:13.836Z,93.94
2019-03-11T06:57:42.347Z,93.71
2019-03-11T07:00:16.275Z,93.58
2019-03-11T07:02:44.098Z,93.29
2019-03-11T07:05:19.969Z,93.87
2019-03-11T07:07:43.089Z,92.55
2019-03-11T07:10:16.388Z,92.29
2019-03-11T07:12:44.972Z,92.09
2019-03-11T07:15:15.658Z,91.97
2019-03-11T07:17:44.448Z,91.77
2019-03-11T07:20:15.242Z,91.68
2019-03-11T07:22:43.843Z,92.11
2019-03-11T07:25:12.530Z,92.08
2019-03-11T07:27:41.060Z,91.77
2019-03-11T07:30:17.889Z,91.88
2019-03-11T07:32:46.501Z,91.74
2019-03-11T07:35:15.086Z,91.61
2019-03-11T07:37:43.723Z,91.78
2019-03-11T07:40:16.493Z,92.00
2019-03-11T07:42:45.172Z,92.23
2019-03-11T07:45:15.165Z,92.51
2019-03-11T07:47:43.682Z,92.70
2019-03-11T07:50:14.292Z,92.87
2019-03-11T07:52:42.809Z,92.52
2019-03-11T07:55:14.787Z,92.71
2019-03-11T07:57:43.372Z,92.95
2019-03-11T08:00:14.402Z,93.06
2019-03-11T08:02:42.843Z,93.43
2019-03-11T08:05:11.445Z,93.42
2019-03-11T08:07:39.974Z,93.73
2019-03-11T08:10:19.906Z,93.39
2019-03-11T08:12:48.488Z,92.97
2019-03-11T08:15:17.476Z,93.17
2019-03-11T08:17:46.191Z,93.29
2019-03-11T08:20:15.587Z,93.00
2019-03-11T08:22:44.222Z,93.40
2019-03-11T08:25:13.907Z,93.41
2019-03-11T08:27:42.623Z,93.41
2019-03-11T08:30:22.231Z,93.74
2019-03-11T08:32:50.942Z,93.56
2019-03-11T08:35:19.412Z,93.78
2019-03-11T08:37:47.957Z,93.49
2019-03-11T08:40:18.408Z,93.46
2019-03-11T08:42:47.030Z,93.51
2019-03-11T08:45:17.810Z,93.84
2019-03-11T08:47:46.397Z,93.79
2019-03-11T08:50:15.889Z,93.87
2019-03-11T08:52:44.614Z,93.67
2019-03-11T08:55:13.492Z,93.30
2019-03-11T08:57:42.007Z,93.29
2019-03-11T09:00:18.547Z,93.07
2019-03-11T09:02:47.163Z,93.22
2019-03-11T09:05:17.226Z,93.70
2019-03-11T09:07:45.834Z,93.64
2019-03-11T09:10:18.528Z,93.82
2019-03-11T09:12:47.158Z,93.91
2019-03-11T09:15:22.382Z,94.10
2019-03-11T09:17:51.075Z,94.10
2019-03-11T09:20:19.962Z,93.50
2019-03-11T09:22:48.478Z,92.60
2019-03-11T09:25:25.161Z,92.10
2019-03-11T09:27:53.850Z,91.85
2019-03-11T09:30:23.241Z,90.57
2019-03-11T09:32:51.930Z,90.17
2019-03-11T09:35:20.780Z,90.37
2019-03-11T09:37:49.477Z,90.31
2019-03-11T09:40:20.126Z,89.82
2019-03-11T09:42:48.714Z,89.82
2019-03-11T09:45:18.210Z,89.64
2019-03-11T09:47:47.143Z,89.68
2019-03-11T09:50:16.575Z,89.79
2019-03-11T09:52:45.157Z,89.39
2019-03-11T09:55:21.220Z,89.34
2019-03-11T09:57:49.823Z,88.77
2019-03-11T10:00:29.365Z,88.49
2019-03-11T10:02:57.947Z,87.96
2019-03-11T10:05:26.641Z,87.59
2019-03-11T10:07:55.373Z,86.77
2019-03-11T10:10:25.870Z,86.73
2019-03-11T10:12:54.556Z,87.41
2019-03-11T10:15:23.547Z,86.50
2019-03-11T10:17:52.177Z,85.77
2019-03-11T10:20:21.385Z,86.26
2019-03-11T10:22:49.906Z,86.63
2019-03-11T10:25:19.520Z,87.50
2019-03-11T10:27:48.200Z,88.01
2019-03-11T10:30:21.343Z,88.12
2019-03-11T10:32:49.967Z,88.46
2019-03-11T10:35:39.692Z,89.37
2019-03-11T10:38:08.241Z,89.90
2019-03-11T10:40:37.310Z,90.52
2019-03-11T10:43:06.320Z,91.13
2019-03-11T10:45:35.147Z,92.64
2019-03-11T10:48:04.031Z,91.34
2019-03-11T10:50:33.291Z,89.93
2019-03-11T10:53:02.127Z,89.08
2019-03-11T10:55:32.184Z,86.80
2019-03-11T10:58:01.039Z,85.29
2019-03-11T11:00:33.589Z,84.29
2019-03-11T11:03:03.693Z,84.02
2019-03-11T11:05:32.634Z,84.24
2019-03-11T11:08:01.502Z,82.96
2019-03-11T11:10:30.210Z,82.26
2019-03-11T11:12:58.967Z,81.44
2019-03-11T11:15:29.419Z,80.38
2019-03-11T11:17:59.082Z,79.55
2019-03-11T11:20:27.895Z,79.87
2019-03-11T11:22:57.667Z,78.22
2019-03-11T11:25:28.383Z,77.98
2019-03-11T11:27:57.554Z,77.83
2019-03-11T11:30:27.563Z,78.55
2019-03-11T11:32:56.811Z,78.31
2019-03-11T11:35:25.825Z,77.84
2019-03-11T11:37:57.109Z,80.06
2019-03-11T11:40:30.263Z,81.43
2019-03-11T11:42:59.409Z,82.38
2019-03-11T11:45:31.991Z,83.58
2019-03-11T11:48:00.975Z,83.81
2019-03-11T11:50:29.720Z,84.49
2019-03-11T11:52:58.421Z,84.63
2019-03-11T11:55:28.071Z,84.77
2019-03-11T11:57:57.016Z,85.41
2019-03-11T12:00:32.067Z,86.46
2019-03-11T12:03:01.010Z,87.33
2019-03-11T12:05:30.152Z,87.30
2019-03-11T12:07:59.101Z,87.42
2019-03-11T12:10:29.361Z,87.95
2019-03-11T12:12:58.476Z,89.00
2019-03-11T12:15:27.449Z,88.09
2019-03-11T12:17:56.033Z,88.74
2019-03-11T12:20:30.915Z,86.90
2019-03-11T12:23:00.196Z,88.12
2019-03-11T12:25:29.206Z,83.37
2019-03-11T12:27:58.616Z,81.33
2019-03-11T12:30:30.137Z,79.59
2019-03-11T12:32:59.289Z,81.43
2019-03-11T12:35:28.779Z,81.46
2019-03-11T12:37:57.347Z,80.08
2019-03-11T12:40:26.186Z,79.37
2019-03-11T12:42:55.260Z,78.33
2019-03-11T12:45:25.129Z,77.76
2019-03-11T12:47:54.020Z,78.21
2019-03-11T12:50:25.316Z,78.50
2019-03-11T12:52:53.904Z,77.69
2019-03-11T12:55:22.609Z,76.95
2019-03-11T12:57:51.404Z,76.60
2019-03-11T13:00:24.259Z,76.07
2019-03-11T13:02:54.967Z,75.30
2019-03-11T13:05:23.873Z,74.50
2019-03-11T13:07:52.583Z,74.00
2019-03-11T13:10:25.530Z,73.42
2019-03-11T13:12:54.315Z,72.93
2019-03-11T13:15:24.027Z,73.24
2019-03-11T13:17:53.151Z,72.27
2019-03-11T13:20:25.147Z,72.83
2019-03-11T13:22:54.340Z,72.38
2019-03-11T13:25:22.923Z,73.17
2019-03-11T13:27:52.008Z,75.43
2019-03-11T13:30:20.695Z,77.46
2019-03-11T13:32:49.559Z,78.09
2019-03-11T13:35:18.318Z,79.71
2019-03-11T13:37:47.259Z,80.41
2019-03-11T13:40:17.172Z,80.92
2019-03-11T13:42:45.889Z,81.29
2019-03-11T13:45:16.788Z,81.05
2019-03-11T13:47:45.906Z,80.19
2019-03-11T13:50:20.885Z,80.25
2019-03-11T13:52:49.768Z,80.39
2019-03-11T13:55:18.551Z,81.17
2019-03-11T13:57:48.198Z,81.23
2019-03-11T14:00:19.109Z,80.46
2019-03-11T14:02:47.965Z,80.86
2019-03-11T14:05:16.736Z,80.68
2019-03-11T14:07:45.735Z,79.83
2019-03-11T14:10:15.453Z,78.59
2019-03-11T14:12:45.047Z,78.33
2019-03-11T14:15:18.334Z,76.80
2019-03-11T14:17:46.966Z,76.92
2019-03-11T14:20:16.475Z,75.71
2019-03-11T14:22:45.392Z,76.33
2019-03-11T14:25:14.949Z,76.49
2019-03-11T14:27:44.049Z,76.63
2019-03-11T14:30:17.365Z,76.49
2019-03-11T14:32:46.441Z,76.64
2019-03-11T14:35:15.090Z,76.18
2019-03-11T14:37:43.768Z,76.37
2019-03-11T14:40:15.073Z,74.73
2019-03-11T14:42:43.766Z,73.97
2019-03-11T14:45:17.702Z,73.09
2019-03-11T14:47:46.564Z,73.75
2019-03-11T14:50:16.454Z,77.20
2019-03-11T14:52:45.520Z,78.87
2019-03-11T14:55:14.996Z,78.87
2019-03-11T14:57:43.736Z,78.79
2019-03-11T15:00:22.121Z,78.34
2019-03-11T15:02:51.056Z,77.45
2019-03-11T15:05:20.776Z,75.83
2019-03-11T15:07:49.452Z,76.66
2019-03-11T15:10:22.376Z,76.61
2019-03-11T15:12:51.806Z,75.50
2019-03-11T15:15:24.791Z,74.70
2019-03-11T15:17:53.474Z,75.43
2019-03-11T15:20:22.543Z,76.21
2019-03-11T15:22:51.174Z,75.23
2019-03-11T15:25:21.173Z,74.74
2019-03-11T15:27:50.263Z,73.73
2019-03-11T15:30:23.714Z,72.83
2019-03-11T15:32:54.704Z,73.16
2019-03-11T15:35:23.284Z,74.23
2019-03-11T15:37:52.527Z,75.94
2019-03-11T15:40:21.276Z,76.66
2019-03-11T15:42:50.290Z,77.44
2019-03-11T15:45:19.918Z,78.04
2019-03-11T15:47:49.244Z,78.86
2019-03-11T15:50:32.884Z,80.20
2019-03-11T15:53:01.864Z,81.87
2019-03-11T15:55:36.843Z,82.67
2019-03-11T15:58:07.579Z,83.76
2019-03-11T16:00:36.891Z,85.27
2019-03-11T16:03:06.018Z,86.22
2019-03-11T16:05:35.745Z,87.64
2019-03-11T16:08:04.464Z,87.76
2019-03-11T16:10:33.127Z,88.22
2019-03-11T16:13:01.796Z,88.47
2019-03-11T16:15:31.221Z,88.87
2019-03-11T16:18:00.325Z,88.98
2019-03-11T16:20:29.043Z,89.76
2019-03-11T16:22:57.641Z,89.87
2019-03-11T16:25:26.340Z,90.06
2019-03-11T16:27:55.378Z,90.00
2019-03-11T16:30:26.231Z,89.81
2019-03-11T16:33:00.285Z,89.79
2019-03-11T16:35:27.955Z,90.14
2019-03-11T16:37:57.182Z,90.06
2019-03-11T16:40:26.047Z,89.93
2019-03-11T16:42:54.850Z,90.34
2019-03-11T16:45:23.556Z,90.03
2019-03-11T16:47:52.380Z,90.16
2019-03-11T16:50:24.682Z,90.64
2019-03-11T16:52:53.628Z,90.24
2019-03-11T16:55:27.378Z,90.45
2019-03-11T16:57:56.246Z,89.96
2019-03-11T17:00:41.974Z,89.93
2019-03-11T17:03:10.901Z,90.08
2019-03-11T17:05:39.999Z,90.18
2019-03-11T17:08:09.004Z,90.23
2019-03-11T17:10:37.642Z,89.79
2019-03-11T17:13:06.949Z,89.46
2019-03-11T17:15:35.745Z,89.75
2019-03-11T17:18:04.771Z,89.98
2019-03-11T17:20:33.353Z,89.87
2019-03-11T17:23:03.176Z,90.08
2019-03-11T17:25:32.244Z,89.80
2019-03-11T17:28:01.704Z,89.48
2019-03-11T17:30:30.609Z,89.14
2019-03-11T17:32:59.202Z,89.35
2019-03-11T17:35:27.895Z,89.29
2019-03-11T17:37:57.069Z,89.12
2019-03-11T17:40:26.105Z,89.28
2019-03-11T17:42:54.859Z,89.44
2019-03-11T17:45:23.905Z,89.43
2019-03-11T17:47:52.916Z,89.33
2019-03-11T17:50:24.860Z,89.58
2019-03-11T17:52:53.581Z,89.80
2019-03-11T17:55:22.584Z,89.93
2019-03-11T17:57:51.478Z,90.24
2019-03-11T18:00:25.572Z,90.12
2019-03-11T18:02:53.811Z,90.41
2019-03-11T18:05:25.798Z,90.53
2019-03-11T18:07:54.441Z,90.58
2019-03-11T18:10:23.511Z,90.51
2019-03-11T18:12:52.144Z,90.82
2019-03-11T18:15:20.871Z,90.61
2019-03-11T18:17:49.496Z,90.92
2019-03-11T18:20:21.772Z,90.92
2019-03-11T18:22:50.846Z,90.80
2019-03-11T18:25:21.358Z,90.88
2019-03-11T18:27:50.410Z,90.48
2019-03-11T18:30:30.901Z,90.67
2019-03-11T18:33:00.725Z,90.91
2019-03-11T18:35:29.481Z,90.58
2019-03-11T18:38:03.976Z,90.64
2019-03-11T18:40:29.389Z,90.47
2019-03-11T18:42:58.555Z,90.28
2019-03-11T18:45:27.812Z,90.16
2019-03-11T18:47:58.647Z,89.94
2019-03-11T18:50:27.372Z,89.76
2019-03-11T18:52:56.450Z,89.85
2019-03-11T18:55:25.254Z,89.64
2019-03-11T18:57:53.885Z,89.46
2019-03-11T19:00:23.557Z,89.20
2019-03-11T19:02:52.392Z,88.89
2019-03-11T19:05:25.343Z,89.33
2019-03-11T19:07:55.484Z,89.60
2019-03-11T19:10:24.743Z,89.85
2019-03-11T19:12:53.374Z,90.05
2019-03-11T19:15:23.641Z,90.12
2019-03-11T19:17:53.235Z,90.22
2019-03-11T19:20:25.807Z,90.33
2019-03-11T19:22:55.159Z,90.49
2019-03-11T19:25:24.199Z,90.59
2019-03-11T19:27:52.985Z,90.58
2019-03-11T19:30:25.250Z,90.66
2019-03-11T19:32:54.557Z,90.56
2019-03-11T19:35:24.009Z,90.85
2019-03-11T19:37:53.513Z,91.17
2019-03-11T19:40:25.010Z,91.25
2019-03-11T19:42:54.330Z,91.62
2019-03-11T19:45:23.126Z,91.33
2019-03-11T19:47:51.903Z,91.18
2019-03-11T19:50:21.083Z,91.16
2019-03-11T19:52:58.490Z,91.23
2019-03-11T19:55:20.978Z,91.17
2019-03-11T19:57:49.816Z,91.40
2019-03-11T20:00:20.684Z,91.25
2019-03-11T20:02:49.515Z,91.23
2019-03-11T20:05:24.081Z,91.24
2019-03-11T20:07:53.360Z,91.23
2019-03-11T20:10:22.063Z,91.03
2019-03-11T20:12:53.329Z,90.74
2019-03-11T20:15:22.496Z,90.67
2019-03-11T20:17:52.272Z,90.48
2019-03-11T20:20:21.978Z,90.47
2019-03-11T20:22:52.257Z,90.47
2019-03-11T20:25:34.998Z,90.13
2019-03-11T20:28:04.127Z,90.08
2019-03-11T20:30:33.246Z,90.06
2019-03-11T20:33:03.909Z,90.09
2019-03-11T20:35:34.469Z,90.03
2019-03-11T20:38:03.211Z,89.88
2019-03-11T20:40:32.456Z,90.11
2019-03-11T20:43:01.599Z,90.21
2019-03-11T20:45:30.832Z,90.42
2019-03-11T20:47:59.697Z,90.50
2019-03-11T20:50:37.609Z,90.78
2019-03-11T20:52:59.615Z,90.78
2019-03-11T20:55:28.943Z,90.93
2019-03-11T20:57:57.844Z,90.62
2019-03-11T21:00:28.375Z,90.41
2019-03-11T21:02:59.904Z,90.38
2019-03-11T21:05:35.632Z,90.24
2019-03-11T21:08:05.402Z,89.88
2019-03-11T21:10:37.124Z,89.64
2019-03-11T21:13:05.949Z,89.72
2019-03-11T21:15:34.711Z,89.53
2019-03-11T21:18:03.656Z,89.56
2019-03-11T21:20:32.888Z,89.37
2019-03-11T21:23:01.621Z,89.12
2019-03-11T21:25:31.348Z,88.85
2019-03-11T21:28:00.683Z,88.84
2019-03-11T21:30:29.389Z,88.76
2019-03-11T21:32:59.738Z,88.50
2019-03-11T21:35:29.114Z,88.15
2019-03-11T21:37:57.823Z,88.18
2019-03-11T21:40:26.719Z,88.18
2019-03-11T21:42:55.586Z,87.94
2019-03-11T21:45:33.591Z,87.78
2019-03-11T21:47:54.726Z,87.59
2019-03-11T21:50:30.692Z,87.51
2019-03-11T21:52:59.314Z,87.27
2019-03-11T21:55:28.043Z,87.61
2019-03-11T21:57:56.868Z,87.43
2019-03-11T22:00:34.604Z,87.54
2019-03-11T22:02:56.466Z,87.28
2019-03-11T22:05:25.557Z,87.27
2019-03-11T22:07:54.478Z,87.31
2019-03-11T22:10:23.215Z,87.21
2019-03-11T22:12:52.372Z,87.45
2019-03-11T22:15:25.998Z,87.24
2019-03-11T22:17:54.670Z,87.29
2019-03-11T22:20:23.328Z,87.59
2019-03-11T22:22:52.096Z,87.54
2019-03-11T22:25:21.498Z,87.54
2019-03-11T22:27:50.335Z,87.50
2019-03-11T22:30:25.510Z,87.74
2019-03-11T22:32:54.175Z,87.97
2019-03-11T22:35:22.964Z,87.85
2019-03-11T22:37:51.719Z,88.05
2019-03-11T22:40:20.992Z,88.12
2019-03-11T22:42:50.389Z,88.31
2019-03-11T22:45:22.294Z,88.65
2019-03-11T22:47:52.488Z,88.84
2019-03-11T22:50:21.418Z,88.99
2019-03-11T22:52:50.265Z,89.03
2019-03-11T22:55:20.319Z,89.17
2019-03-11T22:57:49.115Z,89.04
2019-03-11T23:00:31.597Z,89.04
2019-03-11T23:03:00.402Z,89.18
2019-03-11T23:05:29.064Z,89.11
2019-03-11T23:07:59.644Z,89.02
2019-03-11T23:10:28.815Z,88.79
2019-03-11T23:12:57.427Z,88.61
2019-03-11T23:15:26.155Z,88.58
2019-03-11T23:17:55.096Z,88.70
2019-03-11T23:20:23.612Z,88.72
2019-03-11T23:22:52.265Z,88.78
2019-03-11T23:25:21.035Z,88.87
2019-03-11T23:27:49.640Z,88.87
2019-03-11T23:30:18.535Z,88.87
2019-03-11T23:32:47.723Z,88.72
2019-03-11T23:35:16.592Z,88.81
2019-03-11T23:37:45.302Z,88.79
2019-03-11T23:40:14.244Z,88.91
2019-03-11T23:42:43.158Z,89.12
2019-03-11T23:45:12.920Z,89.22
2019-03-11T23:47:41.503Z,89.44
2019-03-11T23:50:12.087Z,89.70
2019-03-11T23:52:41.021Z,89.69
2019-03-11T23:55:10.920Z,89.61
2019-03-11T23:57:39.919Z,89.68
